TRA9Y GCLP-EHAM
Flight info
| Callsign | TRA9Y |
|---|---|
| Flight time | N/A |
| Altitude | 34000 |
| Route | VASTO DCT NIDEB DCT TIGGI DCT ESUTI DCT PINEK/N0460F360 DCT LOTEE DCT AZFIC DCT ERIGA DCT GODIX DCT PODEM UN873 BAZOS DCT BELDI DCT VEKIN DCT ADUTO N873 FERDI Y18 DENUT |
| Aircraft | B738/M-SDE2E3FGHIJ1RWXYZ/LB1 |
Departure
| Time | 2026-05-05 05:50 |
|---|---|
| Airport | Gran Canaria Airport (GCLP) |
Arrival
| Time | N/A |
|---|---|
| Airport | Amsterdam Airport Schiphol (EHAM) |
| Time | Latitude | Longitude | Altitude | Speed | Heading |
|---|---|---|---|---|---|
| 2026-05-05 04:47 | 27.93814 | -15.38834 | 84 ft | 0 kts | 291° |
| 2026-05-05 05:36 | 27.93814 | -15.38833 | 84 ft | 1 kts | 291° |
| 2026-05-05 05:37 | 27.93805 | -15.38808 | 88 ft | 4 kts | 291° |
| 2026-05-05 05:37 | 27.93797 | -15.38784 | 85 ft | 4 kts | 289° |
| 2026-05-05 05:37 | 27.93794 | -15.38758 | 88 ft | 4 kts | 240° |
| 2026-05-05 05:37 | 27.93813 | -15.38739 | 84 ft | 4 kts | 202° |
| 2026-05-05 05:38 | 27.93818 | -15.38737 | 84 ft | 0 kts | 201° |
| 2026-05-05 05:42 | 27.93812 | -15.38739 | 82 ft | 2 kts | 201° |
| 2026-05-05 05:42 | 27.93787 | -15.38752 | 85 ft | 6 kts | 203° |
| 2026-05-05 05:42 | 27.93733 | -15.38776 | 85 ft | 10 kts | 201° |
| 2026-05-05 05:42 | 27.93664 | -15.38806 | 83 ft | 10 kts | 201° |
| 2026-05-05 05:43 | 27.93598 | -15.38835 | 85 ft | 10 kts | 201° |
| 2026-05-05 05:43 | 27.93533 | -15.38863 | 83 ft | 10 kts | 198° |
| 2026-05-05 05:43 | 27.93466 | -15.38875 | 83 ft | 10 kts | 164° |
| 2026-05-05 05:43 | 27.93428 | -15.38811 | 73 ft | 11 kts | 110° |
| 2026-05-05 05:44 | 27.93393 | -15.38759 | 73 ft | 9 kts | 175° |
| 2026-05-05 05:44 | 27.93334 | -15.38786 | 70 ft | 10 kts | 202° |
| 2026-05-05 05:44 | 27.93271 | -15.38813 | 72 ft | 10 kts | 201° |
| 2026-05-05 05:44 | 27.93210 | -15.38840 | 69 ft | 9 kts | 201° |
| 2026-05-05 05:45 | 27.93152 | -15.38870 | 71 ft | 9 kts | 208° |
| 2026-05-05 05:45 | 27.93095 | -15.38899 | 71 ft | 9 kts | 201° |
| 2026-05-05 05:45 | 27.93038 | -15.38925 | 72 ft | 9 kts | 201° |
| 2026-05-05 05:45 | 27.92968 | -15.38955 | 72 ft | 12 kts | 201° |
| 2026-05-05 05:46 | 27.92887 | -15.38991 | 83 ft | 13 kts | 201° |
| 2026-05-05 05:46 | 27.92805 | -15.39027 | 87 ft | 13 kts | 201° |
| 2026-05-05 05:46 | 27.92725 | -15.39063 | 85 ft | 12 kts | 202° |
| 2026-05-05 05:46 | 27.92646 | -15.39098 | 89 ft | 13 kts | 201° |
| 2026-05-05 05:47 | 27.92557 | -15.39137 | 93 ft | 14 kts | 201° |
| 2026-05-05 05:47 | 27.92471 | -15.39175 | 95 ft | 13 kts | 201° |
| 2026-05-05 05:47 | 27.92388 | -15.39212 | 97 ft | 13 kts | 201° |
| 2026-05-05 05:47 | 27.92307 | -15.39247 | 98 ft | 12 kts | 201° |
| 2026-05-05 05:48 | 27.92240 | -15.39277 | 99 ft | 10 kts | 201° |
| 2026-05-05 05:48 | 27.92178 | -15.39302 | 98 ft | 10 kts | 193° |
| 2026-05-05 05:48 | 27.92102 | -15.39305 | 93 ft | 12 kts | 176° |
| 2026-05-05 05:48 | 27.92014 | -15.39297 | 90 ft | 13 kts | 175° |
| 2026-05-05 05:49 | 27.91931 | -15.39280 | 87 ft | 11 kts | 151° |
| 2026-05-05 05:49 | 27.91909 | -15.39231 | 87 ft | 7 kts | 72° |
| 2026-05-05 05:49 | 27.91951 | -15.39205 | 84 ft | 7 kts | 20° |
| 2026-05-05 05:49 | 27.92049 | -15.39163 | 84 ft | 34 kts | 21° |
| 2026-05-05 05:50 | 27.92497 | -15.38964 | 70 ft | 103 kts | 21° |
| 2026-05-05 05:50 | 27.93358 | -15.38587 | 62 ft | 160 kts | 20° |
| 2026-05-05 05:50 | 27.94438 | -15.38068 | 635 ft | 165 kts | 25° |
| 2026-05-05 05:50 | 27.95453 | -15.37447 | 1378 ft | 170 kts | 31° |
| 2026-05-05 05:51 | 27.96505 | -15.36753 | 1923 ft | 184 kts | 32° |
| 2026-05-05 05:51 | 27.97651 | -15.35958 | 2365 ft | 201 kts | 33° |
| 2026-05-05 05:51 | 27.98865 | -15.35082 | 2781 ft | 213 kts | 34° |
| 2026-05-05 05:51 | 28.00210 | -15.34187 | 3138 ft | 234 kts | 25° |
| 2026-05-05 05:52 | 28.01783 | -15.33672 | 3885 ft | 233 kts | 12° |
| 2026-05-05 05:52 | 28.03305 | -15.33238 | 4906 ft | 221 kts | 17° |
| 2026-05-05 05:52 | 28.04819 | -15.32736 | 5348 ft | 236 kts | 12° |
| 2026-05-05 05:52 | 28.06500 | -15.32389 | 5677 ft | 256 kts | 8° |
| 2026-05-05 05:53 | 28.08316 | -15.31913 | 5958 ft | 279 kts | 14° |
| 2026-05-05 05:53 | 28.10181 | -15.31230 | 6652 ft | 283 kts | 18° |
| 2026-05-05 05:53 | 28.12041 | -15.30465 | 7308 ft | 289 kts | 19° |
| 2026-05-05 05:53 | 28.13941 | -15.29651 | 7947 ft | 294 kts | 18° |
| 2026-05-05 05:54 | 28.15930 | -15.28922 | 7981 ft | 305 kts | 12° |
| 2026-05-05 05:54 | 28.17976 | -15.28349 | 7930 ft | 300 kts | 11° |
| 2026-05-05 05:54 | 28.19978 | -15.27815 | 8027 ft | 290 kts | 11° |
| 2026-05-05 05:54 | 28.21939 | -15.27286 | 8273 ft | 293 kts | 11° |
| 2026-05-05 05:55 | 28.23953 | -15.26732 | 8838 ft | 300 kts | 11° |
| 2026-05-05 05:55 | 28.25991 | -15.26160 | 9571 ft | 303 kts | 10° |
| 2026-05-05 05:55 | 28.28050 | -15.25576 | 10224 ft | 308 kts | 10° |
| 2026-05-05 05:55 | 28.30198 | -15.24967 | 10454 ft | 329 kts | 10° |
| 2026-05-05 05:56 | 28.32489 | -15.24297 | 10628 ft | 351 kts | 14° |
| 2026-05-05 05:56 | 28.34748 | -15.23013 | 10852 ft | 374 kts | 30° |
| 2026-05-05 05:56 | 28.36942 | -15.21352 | 11338 ft | 382 kts | 31° |
| 2026-05-05 05:56 | 28.38405 | -15.20221 | 11722 ft | 385 kts | 31° |
| 2026-05-05 05:57 | 28.40627 | -15.18503 | 12381 ft | 388 kts | 31° |
| 2026-05-05 05:57 | 28.42879 | -15.16776 | 12967 ft | 393 kts | 31° |
| 2026-05-05 05:57 | 28.45167 | -15.15037 | 13524 ft | 399 kts | 30° |
| 2026-05-05 05:57 | 28.47492 | -15.13283 | 14052 ft | 404 kts | 30° |
| 2026-05-05 05:58 | 28.49852 | -15.11510 | 14576 ft | 408 kts | 30° |
| 2026-05-05 05:58 | 28.52231 | -15.09725 | 15109 ft | 412 kts | 30° |
| 2026-05-05 05:58 | 28.54633 | -15.07925 | 15632 ft | 416 kts | 30° |
| 2026-05-05 05:58 | 28.57068 | -15.06099 | 16161 ft | 420 kts | 30° |
| 2026-05-05 05:59 | 28.59524 | -15.04257 | 16675 ft | 424 kts | 30° |
| 2026-05-05 05:59 | 28.62002 | -15.02398 | 17178 ft | 429 kts | 30° |
| 2026-05-05 05:59 | 28.64476 | -15.00540 | 17679 ft | 433 kts | 30° |
| 2026-05-05 05:59 | 28.67007 | -14.98638 | 18176 ft | 437 kts | 30° |
| 2026-05-05 06:00 | 28.69555 | -14.96722 | 18616 ft | 441 kts | 30° |
| 2026-05-05 06:00 | 28.72124 | -14.94787 | 19097 ft | 443 kts | 30° |
| 2026-05-05 06:00 | 28.74710 | -14.92840 | 19558 ft | 447 kts | 30° |
| 2026-05-05 06:00 | 28.77317 | -14.90876 | 19988 ft | 451 kts | 30° |
| 2026-05-05 06:01 | 28.79944 | -14.88895 | 20397 ft | 455 kts | 30° |
| 2026-05-05 06:01 | 28.82598 | -14.86893 | 20805 ft | 459 kts | 30° |
| 2026-05-05 06:01 | 28.85271 | -14.84876 | 21220 ft | 463 kts | 30° |
| 2026-05-05 06:01 | 28.87935 | -14.82865 | 21607 ft | 466 kts | 30° |
| 2026-05-05 06:02 | 28.90651 | -14.80814 | 21998 ft | 470 kts | 30° |
| 2026-05-05 06:02 | 28.93392 | -14.78744 | 22379 ft | 474 kts | 30° |
| 2026-05-05 06:02 | 28.96154 | -14.76656 | 22756 ft | 478 kts | 29° |
| 2026-05-05 06:02 | 28.98936 | -14.74551 | 23131 ft | 482 kts | 29° |
| 2026-05-05 06:03 | 29.01742 | -14.72426 | 23526 ft | 485 kts | 28° |
| 2026-05-05 06:03 | 29.04563 | -14.70288 | 23895 ft | 487 kts | 28° |
| 2026-05-05 06:03 | 29.07391 | -14.68142 | 24257 ft | 488 kts | 28° |
| 2026-05-05 06:03 | 29.10228 | -14.65987 | 24588 ft | 491 kts | 28° |
| 2026-05-05 06:04 | 29.13080 | -14.63821 | 24906 ft | 493 kts | 28° |
| 2026-05-05 06:04 | 29.15946 | -14.61642 | 25218 ft | 496 kts | 28° |
| 2026-05-05 06:04 | 29.18826 | -14.59452 | 25540 ft | 498 kts | 28° |
| 2026-05-05 06:04 | 29.21717 | -14.57250 | 25852 ft | 500 kts | 28° |
| 2026-05-05 06:05 | 29.24606 | -14.55050 | 26185 ft | 502 kts | 28° |
| 2026-05-05 06:05 | 29.27484 | -14.52856 | 26505 ft | 503 kts | 28° |
| 2026-05-05 06:05 | 29.30410 | -14.50624 | 26795 ft | 506 kts | 28° |
| 2026-05-05 06:05 | 29.33347 | -14.48382 | 27107 ft | 508 kts | 28° |
| 2026-05-05 06:06 | 29.36293 | -14.46131 | 27400 ft | 510 kts | 28° |
| 2026-05-05 06:06 | 29.39253 | -14.43869 | 27678 ft | 512 kts | 28° |
| 2026-05-05 06:06 | 29.42224 | -14.41597 | 27948 ft | 514 kts | 28° |
| 2026-05-05 06:06 | 29.45209 | -14.39311 | 28225 ft | 516 kts | 28° |
| 2026-05-05 06:07 | 29.48205 | -14.37016 | 28497 ft | 518 kts | 28° |
| 2026-05-05 06:07 | 29.51207 | -14.34714 | 28758 ft | 520 kts | 28° |
| 2026-05-05 06:07 | 29.54219 | -14.32403 | 29014 ft | 522 kts | 28° |
| 2026-05-05 06:07 | 29.57247 | -14.30079 | 29263 ft | 524 kts | 28° |
| 2026-05-05 06:08 | 29.60240 | -14.27778 | 29497 ft | 526 kts | 28° |
| 2026-05-05 06:08 | 29.63286 | -14.25436 | 29867 ft | 525 kts | 28° |
| 2026-05-05 06:08 | 29.66281 | -14.23125 | 30630 ft | 513 kts | 28° |
| 2026-05-05 06:08 | 29.69243 | -14.20842 | 30944 ft | 513 kts | 28° |
| 2026-05-05 06:09 | 29.75233 | -14.16235 | 31122 ft | 521 kts | 28° |
| 2026-05-05 06:09 | 29.78250 | -14.13906 | 31376 ft | 521 kts | 28° |
| 2026-05-05 06:09 | 29.81255 | -14.11585 | 31693 ft | 520 kts | 27° |
| 2026-05-05 06:10 | 29.84264 | -14.09259 | 31946 ft | 520 kts | 27° |
| 2026-05-05 06:10 | 29.87275 | -14.06932 | 32125 ft | 522 kts | 27° |
| 2026-05-05 06:10 | 29.90296 | -14.04596 | 32319 ft | 523 kts | 27° |
| 2026-05-05 06:10 | 29.93318 | -14.02256 | 32561 ft | 523 kts | 27° |
| 2026-05-05 06:11 | 29.96296 | -13.99948 | 32803 ft | 523 kts | 27° |
| 2026-05-05 06:11 | 29.99317 | -13.97604 | 33016 ft | 524 kts | 27° |
| 2026-05-05 06:11 | 30.02348 | -13.95251 | 33211 ft | 525 kts | 27° |
| 2026-05-05 06:11 | 30.05388 | -13.92890 | 33429 ft | 525 kts | 27° |
| 2026-05-05 06:12 | 30.08418 | -13.90534 | 33660 ft | 525 kts | 27° |
| 2026-05-05 06:12 | 30.11449 | -13.88176 | 33862 ft | 526 kts | 26° |
| 2026-05-05 06:12 | 30.14485 | -13.85811 | 34057 ft | 526 kts | 26° |
| 2026-05-05 06:12 | 30.17519 | -13.83446 | 34331 ft | 523 kts | 26° |
| 2026-05-05 06:13 | 30.20528 | -13.81097 | 34641 ft | 520 kts | 26° |
| 2026-05-05 06:13 | 30.23532 | -13.78751 | 34861 ft | 520 kts | 26° |
| 2026-05-05 06:13 | 30.26487 | -13.76443 | 35084 ft | 519 kts | 26° |
| 2026-05-05 06:13 | 30.29479 | -13.74106 | 35262 ft | 519 kts | 26° |
| 2026-05-05 06:14 | 30.32485 | -13.71757 | 35390 ft | 520 kts | 26° |
| 2026-05-05 06:14 | 30.35482 | -13.69412 | 35531 ft | 520 kts | 27° |
| 2026-05-05 06:14 | 30.38478 | -13.67066 | 35711 ft | 520 kts | 27° |
| 2026-05-05 06:14 | 30.41471 | -13.64719 | 35899 ft | 519 kts | 27° |
| 2026-05-05 06:15 | 30.44461 | -13.62372 | 36049 ft | 519 kts | 27° |
| 2026-05-05 06:15 | 30.47458 | -13.60020 | 36048 ft | 522 kts | 27° |
| 2026-05-05 06:15 | 30.53523 | -13.55410 | 36087 ft | 517 kts | 22° |
| 2026-05-05 06:16 | 30.59823 | -13.51448 | 36066 ft | 512 kts | 19° |
| 2026-05-05 06:16 | 30.66106 | -13.47693 | 36056 ft | 510 kts | 19° |
| 2026-05-05 06:17 | 30.72382 | -13.43850 | 36054 ft | 509 kts | 20° |
| 2026-05-05 06:17 | 30.78613 | -13.39949 | 36058 ft | 508 kts | 20° |
| 2026-05-05 06:18 | 30.84819 | -13.36033 | 36087 ft | 506 kts | 21° |
| 2026-05-05 06:18 | 30.91002 | -13.32128 | 36068 ft | 505 kts | 21° |
| 2026-05-05 06:19 | 30.97179 | -13.28225 | 36065 ft | 504 kts | 21° |
| 2026-05-05 06:19 | 31.03345 | -13.24326 | 36067 ft | 503 kts | 21° |
| 2026-05-05 06:20 | 31.09470 | -13.20448 | 36070 ft | 503 kts | 21° |
| 2026-05-05 06:20 | 31.15621 | -13.16546 | 36079 ft | 504 kts | 22° |
| 2026-05-05 06:21 | 31.21793 | -13.12626 | 36074 ft | 504 kts | 22° |
| 2026-05-05 06:21 | 31.27959 | -13.08705 | 36069 ft | 504 kts | 22° |
| 2026-05-05 06:22 | 31.34121 | -13.04779 | 36071 ft | 504 kts | 22° |
| 2026-05-05 06:22 | 31.40245 | -13.00871 | 36070 ft | 504 kts | 22° |
| 2026-05-05 06:23 | 31.46422 | -12.96925 | 36069 ft | 505 kts | 22° |
| 2026-05-05 06:23 | 31.52587 | -12.92978 | 36071 ft | 504 kts | 22° |
| 2026-05-05 06:24 | 31.58748 | -12.89029 | 36070 ft | 504 kts | 22° |
| 2026-05-05 06:24 | 31.64865 | -12.85102 | 36069 ft | 503 kts | 22° |
| 2026-05-05 06:25 | 31.71013 | -12.81149 | 36101 ft | 503 kts | 23° |
| 2026-05-05 06:25 | 31.77140 | -12.77202 | 36079 ft | 502 kts | 23° |
| 2026-05-05 06:26 | 31.83259 | -12.73257 | 36068 ft | 500 kts | 23° |
| 2026-05-05 06:26 | 31.89352 | -12.69321 | 36070 ft | 498 kts | 23° |
| 2026-05-05 06:27 | 31.98417 | -12.63456 | 36073 ft | 496 kts | 23° |
| 2026-05-05 06:28 | 32.04459 | -12.59539 | 36072 ft | 495 kts | 24° |
| 2026-05-05 06:28 | 32.10485 | -12.55626 | 36078 ft | 494 kts | 24° |
| 2026-05-05 06:29 | 32.16491 | -12.51721 | 36081 ft | 492 kts | 24° |
| 2026-05-05 06:29 | 32.22487 | -12.47816 | 36080 ft | 491 kts | 24° |
| 2026-05-05 06:30 | 32.28472 | -12.43912 | 36114 ft | 491 kts | 24° |
| 2026-05-05 06:30 | 32.34410 | -12.40033 | 36081 ft | 491 kts | 24° |
| 2026-05-05 06:31 | 32.40391 | -12.36120 | 36078 ft | 491 kts | 24° |
| 2026-05-05 06:31 | 32.46367 | -12.32205 | 36084 ft | 491 kts | 24° |
| 2026-05-05 06:32 | 32.52343 | -12.28283 | 36081 ft | 491 kts | 24° |